Arcadia, Oklahoma
Current Conditions -  °F | °C
As of 12:53 PM on Sunday 23 Nov 2014 (Local Time) from KGOK Reporting Station
Overcast Overcast  
Wind Chill: 15°   Ceiling: 3100
Heat Index: 15°   Visibility: 10mi
Dew Point:   Wind: 9mph
Humidity: 64%   Direction: 300°WNW
Pressure: 29.34"   Gusts: NA
Location:  35.67°N, 97.33°W
Report Text: KGOK 231853Z AUTO 30008KT 10SM FEW027 OVC031 15/08 A2934 RMK AO2 SLP934 T01500083
Loading
Personal Weather Stations






























Interactive Weather Map New forecast layout! Learn more

10-Day Weather Forecast

Advertisements
Track Severe Weather on mobile